Aviation Digital Data Service (ADDS)

Output produced by METARs form (1347 UTC 12 December 2018)
found at http://www.aviationweather.gov/metar/data/
 
OJAQ 121300Z 02006KT CAVOK 22/07 Q1018 NOSIG
TAF OJAQ 121100Z 1212/1318 36016KT 7000 NSC 
     BECMG 1300/1302 SCT040
       
OJAM 121300Z 25011KT 5000 HZ BKN040 BKN060 13/06 Q1019 NOSIG
TAF OJAM 121100Z 1212/1318 25014KT 5000 HZ SCT030 
     PROB40 
     TEMPO 1214/1306 27018KT 2000 SHRA DU FEW030TCU BKN035 
     BECMG 1306/1308 28010KT FEW030 SCT035
       
OJAI 121300Z 24014KT 8000 BKN035 15/05 Q1020 NOSIG
TAF OJAI 121100Z 1212/1318 25014KT 5000 HZ SCT030 
     PROB40 
     TEMPO 1214/1306 27020KT 2000 SHRA DU FEW030TCU BKN035 
     BECMG 1306/1308 28012KT FEW030 SCT035